Portada
METAR-TAF:

METAR-TAF

Aeroports :

Corrientes, Argentina

latitud: 27-27S, longitud: 058-46W, altitud: 62 m

Observació

L'informe es va fer fa 49 minuts, a les 22:00 UTC
Vent 5 kt del Sud-Est
Temperatura 18°C
Humitat 56%
Pressió 1009 hPa
Visibilitat: 9000 m

METAR: SARC 172200Z 14005KT 9000 NSC 18/09 Q1009

Hora: 19:49 (22:49 UTC)


TAF: manca

Observacions i pronòstics meteorològics de més de 4000 aeroports (METAR i TAF).

Les estacions disponibles són els punts grocs i vermells al mapa.

Posi el ratolí al punt desitjat per veure el nom de l'estació.

Feu clic per veure les observacions i els pronòstics meteorològics.

Per canviar el mapa: feu clic els botons verds amb una creu de color negre per apropar; al botó verd amb un guió per allunyar la imatge; o en les fletxes verdes per a mapes adjacents.


METAR-TAF: